Terminal Aerodrome Forecast
Issued by NWS

Home | Current Version | Previous Version | Text Only | Print | Product List | Glossary On
Versions: 1 2 3 4 5 6 7 8 9 10 11 12 13 14 15 16 17 18 19 20 21 22
205
FTUS43 KIND 182320
TAFBMG
TAF
KBMG 182320Z 1900/1924 14007KT P6SM OVC250
     FM190300 15010KT P6SM OVC250 WS020/19040KT
     FM190600 18010KT P6SM BKN040 WS020/21040KT
     FM190800 19011KT P6SM VCSH OVC015 WS020/22040KT
     FM191000 20012KT 1SM -SHRA BR OVC003 WS020/22045KT
     FM191200 20013KT 1SM SHRA BR OVC003 WS020/22050KT
      AMD LTD TO CLD VIS AND WIND 1902/1914=

USA.gov is the U.S. government's official web portal to all federal, state and local government web resources and services.